sensor_id;sensor_type;location;lat;lon;timestamp;P1;durP1;ratioP1;P2;durP2;ratioP2
55082;SDS011;40978;52.850;6.506;2023-02-28T00:00:25;8.85;;;2.08;;
55082;SDS011;40978;52.850;6.506;2023-02-28T00:02:51;7.32;;;2.20;;
55082;SDS011;40978;52.850;6.506;2023-02-28T00:05:18;8.95;;;2.42;;
55082;SDS011;40978;52.850;6.506;2023-02-28T00:07:46;9.25;;;2.85;;
55082;SDS011;40978;52.850;6.506;2023-02-28T00:10:14;12.05;;;2.42;;
55082;SDS011;40978;52.850;6.506;2023-02-28T00:12:48;6.22;;;2.60;;
55082;SDS011;40978;52.850;6.506;2023-02-28T00:15:14;11.25;;;2.92;;
55082;SDS011;40978;52.850;6.506;2023-02-28T00:17:40;8.65;;;2.90;;
55082;SDS011;40978;52.850;6.506;2023-02-28T00:20:06;8.02;;;2.83;;
55082;SDS011;40978;52.850;6.506;2023-02-28T00:22:35;11.32;;;2.75;;
55082;SDS011;40978;52.850;6.506;2023-02-28T00:25:02;6.47;;;2.80;;
55082;SDS011;40978;52.850;6.506;2023-02-28T00:27:29;8.30;;;2.45;;
55082;SDS011;40978;52.850;6.506;2023-02-28T00:29:55;9.25;;;3.00;;
55082;SDS011;40978;52.850;6.506;2023-02-28T00:32:20;10.82;;;2.92;;
55082;SDS011;40978;52.850;6.506;2023-02-28T00:34:46;8.00;;;3.33;;
55082;SDS011;40978;52.850;6.506;2023-02-28T00:37:12;10.07;;;3.05;;
55082;SDS011;40978;52.850;6.506;2023-02-28T00:39:38;9.38;;;3.10;;
55082;SDS011;40978;52.850;6.506;2023-02-28T00:42:05;7.70;;;2.88;;
55082;SDS011;40978;52.850;6.506;2023-02-28T00:44:31;10.35;;;3.13;;
55082;SDS011;40978;52.850;6.506;2023-02-28T00:46:57;7.30;;;3.00;;
55082;SDS011;40978;52.850;6.506;2023-02-28T00:49:25;11.45;;;3.15;;
55082;SDS011;40978;52.850;6.506;2023-02-28T00:51:52;8.23;;;3.22;;
55082;SDS011;40978;52.850;6.506;2023-02-28T00:54:21;8.15;;;3.08;;
55082;SDS011;40978;52.850;6.506;2023-02-28T00:56:48;10.85;;;3.10;;
55082;SDS011;40978;52.850;6.506;2023-02-28T00:59:14;9.52;;;2.92;;
55082;SDS011;40978;52.850;6.506;2023-02-28T01:01:41;8.73;;;3.30;;
55082;SDS011;40978;52.850;6.506;2023-02-28T01:04:08;10.93;;;3.42;;
55082;SDS011;40978;52.850;6.506;2023-02-28T01:06:33;10.00;;;3.20;;
55082;SDS011;40978;52.850;6.506;2023-02-28T01:08:59;5.70;;;2.50;;
55082;SDS011;40978;52.850;6.506;2023-02-28T01:11:25;6.82;;;2.50;;
55082;SDS011;40978;52.850;6.506;2023-02-28T01:13:51;5.93;;;2.83;;
55082;SDS011;40978;52.850;6.506;2023-02-28T01:16:17;8.93;;;2.60;;
55082;SDS011;40978;52.850;6.506;2023-02-28T01:18:43;7.97;;;2.80;;
55082;SDS011;40978;52.850;6.506;2023-02-28T01:21:10;9.00;;;2.45;;
55082;SDS011;40978;52.850;6.506;2023-02-28T01:23:38;8.95;;;2.92;;
55082;SDS011;40978;52.850;6.506;2023-02-28T01:26:09;9.13;;;2.30;;
55082;SDS011;40978;52.850;6.506;2023-02-28T01:28:36;6.20;;;2.45;;
55082;SDS011;40978;52.850;6.506;2023-02-28T01:31:02;4.28;;;2.10;;
55082;SDS011;40978;52.850;6.506;2023-02-28T01:33:28;5.07;;;2.78;;
55082;SDS011;40978;52.850;6.506;2023-02-28T01:35:58;6.20;;;2.25;;
55082;SDS011;40978;52.850;6.506;2023-02-28T01:38:24;5.53;;;2.75;;
55082;SDS011;40978;52.850;6.506;2023-02-28T01:40:50;5.35;;;2.22;;
55082;SDS011;40978;52.850;6.506;2023-02-28T01:43:26;6.13;;;2.30;;
55082;SDS011;40978;52.850;6.506;2023-02-28T01:45:57;5.47;;;2.28;;
55082;SDS011;40978;52.850;6.506;2023-02-28T01:48:27;7.20;;;2.28;;
55082;SDS011;40978;52.850;6.506;2023-02-28T01:50:58;4.22;;;2.03;;
55082;SDS011;40978;52.850;6.506;2023-02-28T01:53:32;4.05;;;1.92;;
55082;SDS011;40978;52.850;6.506;2023-02-28T01:56:03;4.72;;;2.28;;
55082;SDS011;40978;52.850;6.506;2023-02-28T01:58:31;5.32;;;2.47;;
55082;SDS011;40978;52.850;6.506;2023-02-28T02:00:57;5.00;;;2.25;;
55082;SDS011;40978;52.850;6.506;2023-02-28T02:03:22;5.80;;;2.92;;
55082;SDS011;40978;52.850;6.506;2023-02-28T02:05:49;3.95;;;2.53;;
55082;SDS011;40978;52.850;6.506;2023-02-28T02:08:19;6.13;;;2.58;;
55082;SDS011;40978;52.850;6.506;2023-02-28T02:10:48;3.97;;;2.72;;
55082;SDS011;40978;52.850;6.506;2023-02-28T02:22:12;7.10;;;2.83;;
55082;SDS011;40978;52.850;6.506;2023-02-28T02:32:59;3.85;;;2.28;;
55082;SDS011;40978;52.850;6.506;2023-02-28T02:35:43;4.85;;;2.53;;
55082;SDS011;40978;52.850;6.506;2023-02-28T02:38:33;5.50;;;2.40;;
55082;SDS011;40978;52.850;6.506;2023-02-28T02:43:46;4.00;;;2.22;;
55082;SDS011;40978;52.850;6.506;2023-02-28T02:46:37;7.18;;;2.50;;
55082;SDS011;40978;52.850;6.506;2023-02-28T02:49:05;5.07;;;2.85;;
55082;SDS011;40978;52.850;6.506;2023-02-28T02:51:34;7.82;;;3.05;;
55082;SDS011;40978;52.850;6.506;2023-02-28T02:54:02;6.20;;;3.05;;
55082;SDS011;40978;52.850;6.506;2023-02-28T02:56:33;6.28;;;3.50;;
55082;SDS011;40978;52.850;6.506;2023-02-28T02:59:02;6.88;;;3.30;;
55082;SDS011;40978;52.850;6.506;2023-02-28T03:01:31;6.35;;;3.67;;
55082;SDS011;40978;52.850;6.506;2023-02-28T03:04:06;7.78;;;3.28;;
55082;SDS011;40978;52.850;6.506;2023-02-28T03:06:34;8.50;;;3.97;;
55082;SDS011;40978;52.850;6.506;2023-02-28T03:09:00;8.25;;;4.10;;
55082;SDS011;40978;52.850;6.506;2023-02-28T03:11:26;7.80;;;3.53;;
55082;SDS011;40978;52.850;6.506;2023-02-28T03:14:03;5.68;;;3.92;;
55082;SDS011;40978;52.850;6.506;2023-02-28T03:25:29;10.00;;;6.10;;
55082;SDS011;40978;52.850;6.506;2023-02-28T03:31:02;8.73;;;6.03;;
55082;SDS011;40978;52.850;6.506;2023-02-28T03:33:42;9.40;;;5.95;;
55082;SDS011;40978;52.850;6.506;2023-02-28T03:36:20;11.85;;;6.68;;
55082;SDS011;40978;52.850;6.506;2023-02-28T03:41:23;13.73;;;7.95;;
55082;SDS011;40978;52.850;6.506;2023-02-28T03:44:15;14.98;;;8.40;;
55082;SDS011;40978;52.850;6.506;2023-02-28T03:46:51;17.50;;;8.85;;
55082;SDS011;40978;52.850;6.506;2023-02-28T03:49:31;20.90;;;9.77;;
55082;SDS011;40978;52.850;6.506;2023-02-28T03:52:06;15.85;;;9.07;;
55082;SDS011;40978;52.850;6.506;2023-02-28T03:54:34;16.42;;;9.75;;
55082;SDS011;40978;52.850;6.506;2023-02-28T03:57:54;15.50;;;9.32;;
55082;SDS011;40978;52.850;6.506;2023-02-28T04:00:00;20.20;;;10.95;;
55082;SDS011;40978;52.850;6.506;2023-02-28T04:02:31;19.67;;;11.15;;
55082;SDS011;40978;52.850;6.506;2023-02-28T04:04:57;18.80;;;11.25;;
55082;SDS011;40978;52.850;6.506;2023-02-28T04:07:24;15.93;;;11.15;;
55082;SDS011;40978;52.850;6.506;2023-02-28T04:09:53;16.25;;;10.60;;
55082;SDS011;40978;52.850;6.506;2023-02-28T04:12:19;17.05;;;11.35;;
55082;SDS011;40978;52.850;6.506;2023-02-28T04:14:46;16.17;;;11.48;;
55082;SDS011;40978;52.850;6.506;2023-02-28T04:17:11;19.05;;;11.43;;
55082;SDS011;40978;52.850;6.506;2023-02-28T04:19:37;17.58;;;10.80;;
55082;SDS011;40978;52.850;6.506;2023-02-28T04:22:03;16.38;;;11.30;;
55082;SDS011;40978;52.850;6.506;2023-02-28T04:24:28;20.00;;;11.88;;
55082;SDS011;40978;52.850;6.506;2023-02-28T04:26:55;16.90;;;11.70;;
55082;SDS011;40978;52.850;6.506;2023-02-28T04:29:28;19.27;;;12.43;;
55082;SDS011;40978;52.850;6.506;2023-02-28T04:31:58;18.25;;;12.50;;
55082;SDS011;40978;52.850;6.506;2023-02-28T04:34:25;18.67;;;12.45;;
55082;SDS011;40978;52.850;6.506;2023-02-28T04:36:52;23.90;;;12.70;;
55082;SDS011;40978;52.850;6.506;2023-02-28T04:39:21;18.10;;;12.32;;
55082;SDS011;40978;52.850;6.506;2023-02-28T04:41:48;19.33;;;12.60;;
55082;SDS011;40978;52.850;6.506;2023-02-28T04:44:14;23.17;;;14.00;;
55082;SDS011;40978;52.850;6.506;2023-02-28T04:46:40;19.15;;;12.65;;
55082;SDS011;40978;52.850;6.506;2023-02-28T04:49:06;18.45;;;12.32;;
55082;SDS011;40978;52.850;6.506;2023-02-28T04:51:33;19.75;;;13.35;;
55082;SDS011;40978;52.850;6.506;2023-02-28T04:53:59;19.73;;;12.63;;
55082;SDS011;40978;52.850;6.506;2023-02-28T04:56:24;20.88;;;13.25;;
55082;SDS011;40978;52.850;6.506;2023-02-28T04:58:50;18.65;;;12.80;;
55082;SDS011;40978;52.850;6.506;2023-02-28T05:01:28;22.13;;;12.45;;
55082;SDS011;40978;52.850;6.506;2023-02-28T05:03:56;18.95;;;12.95;;
55082;SDS011;40978;52.850;6.506;2023-02-28T05:06:24;20.40;;;12.98;;
55082;SDS011;40978;52.850;6.506;2023-02-28T05:08:52;19.08;;;13.23;;
55082;SDS011;40978;52.850;6.506;2023-02-28T05:11:36;21.58;;;13.82;;
55082;SDS011;40978;52.850;6.506;2023-02-28T05:16:30;17.75;;;12.80;;
55082;SDS011;40978;52.850;6.506;2023-02-28T05:18:56;20.65;;;12.65;;
55082;SDS011;40978;52.850;6.506;2023-02-28T05:21:29;23.73;;;13.50;;
55082;SDS011;40978;52.850;6.506;2023-02-28T05:24:01;19.42;;;12.85;;
55082;SDS011;40978;52.850;6.506;2023-02-28T05:26:28;18.95;;;13.43;;
55082;SDS011;40978;52.850;6.506;2023-02-28T05:28:54;20.85;;;13.82;;
55082;SDS011;40978;52.850;6.506;2023-02-28T05:31:21;19.50;;;13.02;;
55082;SDS011;40978;52.850;6.506;2023-02-28T05:33:47;19.27;;;12.02;;
55082;SDS011;40978;52.850;6.506;2023-02-28T05:36:13;19.80;;;13.23;;
55082;SDS011;40978;52.850;6.506;2023-02-28T05:38:39;21.13;;;13.35;;
55082;SDS011;40978;52.850;6.506;2023-02-28T05:41:08;21.27;;;13.88;;
55082;SDS011;40978;52.850;6.506;2023-02-28T05:43:35;20.45;;;14.23;;
55082;SDS011;40978;52.850;6.506;2023-02-28T05:46:05;21.55;;;12.85;;
55082;SDS011;40978;52.850;6.506;2023-02-28T05:48:33;19.05;;;13.07;;
55082;SDS011;40978;52.850;6.506;2023-02-28T05:51:00;16.85;;;13.65;;
55082;SDS011;40978;52.850;6.506;2023-02-28T05:53:26;23.90;;;14.35;;
55082;SDS011;40978;52.850;6.506;2023-02-28T05:55:52;20.13;;;13.23;;
55082;SDS011;40978;52.850;6.506;2023-02-28T05:58:18;22.33;;;12.98;;
55082;SDS011;40978;52.850;6.506;2023-02-28T06:00:43;18.55;;;13.50;;
55082;SDS011;40978;52.850;6.506;2023-02-28T06:03:09;21.23;;;13.40;;
55082;SDS011;40978;52.850;6.506;2023-02-28T06:05:35;22.27;;;13.95;;
55082;SDS011;40978;52.850;6.506;2023-02-28T06:08:01;22.77;;;13.77;;
55082;SDS011;40978;52.850;6.506;2023-02-28T06:10:26;21.48;;;13.35;;
55082;SDS011;40978;52.850;6.506;2023-02-28T06:12:52;19.13;;;13.63;;
55082;SDS011;40978;52.850;6.506;2023-02-28T06:15:18;22.88;;;13.98;;
55082;SDS011;40978;52.850;6.506;2023-02-28T06:17:45;23.52;;;13.73;;
55082;SDS011;40978;52.850;6.506;2023-02-28T06:20:12;20.85;;;13.60;;
55082;SDS011;40978;52.850;6.506;2023-02-28T06:22:40;20.10;;;12.88;;
55082;SDS011;40978;52.850;6.506;2023-02-28T06:25:06;17.00;;;12.38;;
55082;SDS011;40978;52.850;6.506;2023-02-28T06:27:33;17.85;;;12.35;;
55082;SDS011;40978;52.850;6.506;2023-02-28T06:29:59;18.17;;;12.10;;
55082;SDS011;40978;52.850;6.506;2023-02-28T06:32:25;18.52;;;12.90;;
55082;SDS011;40978;52.850;6.506;2023-02-28T06:34:50;21.45;;;12.73;;
55082;SDS011;40978;52.850;6.506;2023-02-28T06:37:16;19.25;;;12.32;;
55082;SDS011;40978;52.850;6.506;2023-02-28T06:39:43;17.02;;;12.15;;
55082;SDS011;40978;52.850;6.506;2023-02-28T06:42:08;20.20;;;12.73;;
55082;SDS011;40978;52.850;6.506;2023-02-28T06:44:34;23.90;;;13.43;;
55082;SDS011;40978;52.850;6.506;2023-02-28T06:47:04;18.77;;;12.88;;
55082;SDS011;40978;52.850;6.506;2023-02-28T06:49:32;19.08;;;11.50;;
55082;SDS011;40978;52.850;6.506;2023-02-28T06:51:59;18.65;;;12.75;;
55082;SDS011;40978;52.850;6.506;2023-02-28T06:54:25;19.67;;;13.30;;
55082;SDS011;40978;52.850;6.506;2023-02-28T06:56:51;19.95;;;14.57;;
55082;SDS011;40978;52.850;6.506;2023-02-28T06:59:18;22.77;;;13.15;;
55082;SDS011;40978;52.850;6.506;2023-02-28T07:01:44;19.75;;;12.57;;
55082;SDS011;40978;52.850;6.506;2023-02-28T07:04:10;21.02;;;13.57;;
55082;SDS011;40978;52.850;6.506;2023-02-28T07:06:35;21.00;;;13.60;;
55082;SDS011;40978;52.850;6.506;2023-02-28T07:09:01;20.63;;;13.23;;
55082;SDS011;40978;52.850;6.506;2023-02-28T07:11:28;20.65;;;13.82;;
55082;SDS011;40978;52.850;6.506;2023-02-28T07:13:54;22.13;;;13.40;;
55082;SDS011;40978;52.850;6.506;2023-02-28T07:16:21;26.60;;;13.88;;
55082;SDS011;40978;52.850;6.506;2023-02-28T07:18:48;20.67;;;12.13;;
55082;SDS011;40978;52.850;6.506;2023-02-28T07:21:14;19.40;;;13.55;;
55082;SDS011;40978;52.850;6.506;2023-02-28T07:23:40;22.20;;;13.57;;
55082;SDS011;40978;52.850;6.506;2023-02-28T07:26:10;22.95;;;13.30;;
55082;SDS011;40978;52.850;6.506;2023-02-28T07:28:40;16.63;;;12.85;;
55082;SDS011;40978;52.850;6.506;2023-02-28T07:31:10;22.27;;;13.15;;
55082;SDS011;40978;52.850;6.506;2023-02-28T07:33:37;22.45;;;13.32;;
55082;SDS011;40978;52.850;6.506;2023-02-28T07:36:04;18.90;;;13.20;;
55082;SDS011;40978;52.850;6.506;2023-02-28T07:38:35;21.20;;;12.93;;
55082;SDS011;40978;52.850;6.506;2023-02-28T07:41:02;18.10;;;13.60;;
55082;SDS011;40978;52.850;6.506;2023-02-28T07:43:31;17.10;;;13.35;;
55082;SDS011;40978;52.850;6.506;2023-02-28T07:46:05;21.75;;;13.30;;
55082;SDS011;40978;52.850;6.506;2023-02-28T07:48:36;17.23;;;12.02;;
55082;SDS011;40978;52.850;6.506;2023-02-28T07:51:02;17.20;;;11.98;;
55082;SDS011;40978;52.850;6.506;2023-02-28T07:53:28;18.83;;;12.95;;
55082;SDS011;40978;52.850;6.506;2023-02-28T07:55:55;17.05;;;12.57;;
55082;SDS011;40978;52.850;6.506;2023-02-28T07:58:22;19.00;;;13.65;;
55082;SDS011;40978;52.850;6.506;2023-02-28T08:00:48;22.13;;;14.55;;
55082;SDS011;40978;52.850;6.506;2023-02-28T08:03:15;19.40;;;13.73;;
55082;SDS011;40978;52.850;6.506;2023-02-28T08:05:42;18.38;;;14.25;;
55082;SDS011;40978;52.850;6.506;2023-02-28T08:08:08;21.33;;;13.40;;
55082;SDS011;40978;52.850;6.506;2023-02-28T08:10:33;17.30;;;11.88;;
55082;SDS011;40978;52.850;6.506;2023-02-28T08:12:59;19.27;;;12.65;;
55082;SDS011;40978;52.850;6.506;2023-02-28T08:15:25;15.32;;;12.00;;
55082;SDS011;40978;52.850;6.506;2023-02-28T08:17:51;18.38;;;12.32;;
55082;SDS011;40978;52.850;6.506;2023-02-28T08:20:17;13.77;;;11.48;;
55082;SDS011;40978;52.850;6.506;2023-02-28T08:22:43;16.60;;;12.60;;
55082;SDS011;40978;52.850;6.506;2023-02-28T08:25:09;14.95;;;11.43;;
55082;SDS011;40978;52.850;6.506;2023-02-28T08:27:36;15.82;;;11.93;;
55082;SDS011;40978;52.850;6.506;2023-02-28T08:30:02;14.88;;;10.55;;
55082;SDS011;40978;52.850;6.506;2023-02-28T08:32:28;15.95;;;10.68;;
55082;SDS011;40978;52.850;6.506;2023-02-28T08:34:54;13.80;;;10.95;;
55082;SDS011;40978;52.850;6.506;2023-02-28T08:37:20;15.65;;;10.82;;
55082;SDS011;40978;52.850;6.506;2023-02-28T08:39:45;15.25;;;9.75;;
55082;SDS011;40978;52.850;6.506;2023-02-28T08:42:11;12.65;;;10.20;;
55082;SDS011;40978;52.850;6.506;2023-02-28T08:44:37;14.98;;;10.60;;
55082;SDS011;40978;52.850;6.506;2023-02-28T08:47:03;12.60;;;10.15;;
55082;SDS011;40978;52.850;6.506;2023-02-28T08:49:28;15.90;;;10.70;;
55082;SDS011;40978;52.850;6.506;2023-02-28T08:51:54;13.48;;;8.88;;
55082;SDS011;40978;52.850;6.506;2023-02-28T08:54:22;14.88;;;9.50;;
55082;SDS011;40978;52.850;6.506;2023-02-28T08:56:48;14.75;;;10.10;;
55082;SDS011;40978;52.850;6.506;2023-02-28T08:59:14;14.80;;;9.85;;
55082;SDS011;40978;52.850;6.506;2023-02-28T09:01:40;13.57;;;9.57;;
55082;SDS011;40978;52.850;6.506;2023-02-28T09:04:07;13.95;;;9.95;;
55082;SDS011;40978;52.850;6.506;2023-02-28T09:06:34;12.75;;;9.57;;
55082;SDS011;40978;52.850;6.506;2023-02-28T09:09:01;13.32;;;9.95;;
55082;SDS011;40978;52.850;6.506;2023-02-28T09:11:28;11.90;;;9.30;;
55082;SDS011;40978;52.850;6.506;2023-02-28T09:13:54;10.95;;;9.30;;
55082;SDS011;40978;52.850;6.506;2023-02-28T09:16:22;12.73;;;9.25;;
55082;SDS011;40978;52.850;6.506;2023-02-28T09:18:48;12.63;;;9.48;;
55082;SDS011;40978;52.850;6.506;2023-02-28T09:21:15;13.52;;;10.07;;
55082;SDS011;40978;52.850;6.506;2023-02-28T09:23:42;11.43;;;9.55;;
55082;SDS011;40978;52.850;6.506;2023-02-28T09:28:42;10.52;;;6.85;;
55082;SDS011;40978;52.850;6.506;2023-02-28T09:31:12;9.88;;;6.00;;
55082;SDS011;40978;52.850;6.506;2023-02-28T09:33:39;9.35;;;5.97;;
55082;SDS011;40978;52.850;6.506;2023-02-28T09:36:05;9.32;;;6.70;;
55082;SDS011;40978;52.850;6.506;2023-02-28T09:38:31;8.68;;;6.60;;
55082;SDS011;40978;52.850;6.506;2023-02-28T09:41:17;10.43;;;6.82;;
55082;SDS011;40978;52.850;6.506;2023-02-28T09:44:00;8.20;;;6.03;;
55082;SDS011;40978;52.850;6.506;2023-02-28T09:49:06;6.60;;;5.28;;
55082;SDS011;40978;52.850;6.506;2023-02-28T09:54:23;6.93;;;5.28;;
55082;SDS011;40978;52.850;6.506;2023-02-28T09:56:53;7.18;;;5.35;;
55082;SDS011;40978;52.850;6.506;2023-02-28T10:02:17;8.55;;;5.60;;
55082;SDS011;40978;52.850;6.506;2023-02-28T10:04:51;8.15;;;4.82;;
55082;SDS011;40978;52.850;6.506;2023-02-28T10:10:00;5.68;;;5.10;;
55082;SDS011;40978;52.850;6.506;2023-02-28T10:12:30;6.25;;;4.80;;
55082;SDS011;40978;52.850;6.506;2023-02-28T10:14:57;6.65;;;4.70;;
55082;SDS011;40978;52.850;6.506;2023-02-28T10:17:31;5.50;;;4.35;;
55082;SDS011;40978;52.850;6.506;2023-02-28T10:20:07;6.43;;;4.80;;
55082;SDS011;40978;52.850;6.506;2023-02-28T10:25:28;7.10;;;5.65;;
55082;SDS011;40978;52.850;6.506;2023-02-28T10:27:57;5.85;;;4.90;;
55082;SDS011;40978;52.850;6.506;2023-02-28T10:30:26;6.82;;;4.63;;
55082;SDS011;40978;52.850;6.506;2023-02-28T10:32:53;7.95;;;4.88;;
55082;SDS011;40978;52.850;6.506;2023-02-28T10:35:23;6.97;;;4.63;;
55082;SDS011;40978;52.850;6.506;2023-02-28T10:37:51;6.38;;;4.50;;
55082;SDS011;40978;52.850;6.506;2023-02-28T10:42:56;7.13;;;4.15;;
55082;SDS011;40978;52.850;6.506;2023-02-28T10:45:24;5.25;;;3.70;;
55082;SDS011;40978;52.850;6.506;2023-02-28T10:47:56;6.75;;;3.72;;
55082;SDS011;40978;52.850;6.506;2023-02-28T10:50:39;5.63;;;3.50;;
55082;SDS011;40978;52.850;6.506;2023-02-28T10:53:28;3.72;;;2.65;;
55082;SDS011;40978;52.850;6.506;2023-02-28T10:58:23;5.22;;;2.60;;
55082;SDS011;40978;52.850;6.506;2023-02-28T11:00:51;3.70;;;2.38;;
55082;SDS011;40978;52.850;6.506;2023-02-28T11:03:34;5.72;;;2.40;;
55082;SDS011;40978;52.850;6.506;2023-02-28T11:06:07;4.15;;;2.53;;
55082;SDS011;40978;52.850;6.506;2023-02-28T11:08:45;4.18;;;2.60;;
55082;SDS011;40978;52.850;6.506;2023-02-28T11:11:14;4.53;;;2.55;;
55082;SDS011;40978;52.850;6.506;2023-02-28T11:13:42;3.95;;;2.08;;
55082;SDS011;40978;52.850;6.506;2023-02-28T11:16:10;2.90;;;1.73;;
55082;SDS011;40978;52.850;6.506;2023-02-28T11:18:40;2.38;;;1.63;;
55082;SDS011;40978;52.850;6.506;2023-02-28T11:21:25;2.88;;;1.52;;
55082;SDS011;40978;52.850;6.506;2023-02-28T11:24:41;3.40;;;1.67;;
55082;SDS011;40978;52.850;6.506;2023-02-28T11:26:53;3.42;;;1.60;;
55082;SDS011;40978;52.850;6.506;2023-02-28T11:29:23;5.05;;;1.58;;
55082;SDS011;40978;52.850;6.506;2023-02-28T11:34:32;2.03;;;1.40;;
55082;SDS011;40978;52.850;6.506;2023-02-28T11:36:59;3.17;;;1.70;;
55082;SDS011;40978;52.850;6.506;2023-02-28T11:39:26;3.20;;;1.55;;
55082;SDS011;40978;52.850;6.506;2023-02-28T12:03:43;2.17;;;1.60;;
55082;SDS011;40978;52.850;6.506;2023-02-28T12:06:28;4.10;;;2.08;;
55082;SDS011;40978;52.850;6.506;2023-02-28T12:09:13;3.10;;;1.98;;
55082;SDS011;40978;52.850;6.506;2023-02-28T12:12:00;2.40;;;1.73;;
55082;SDS011;40978;52.850;6.506;2023-02-28T12:20:24;4.25;;;2.13;;
55082;SDS011;40978;52.850;6.506;2023-02-28T12:23:10;2.47;;;1.60;;
55082;SDS011;40978;52.850;6.506;2023-02-28T12:25:47;3.35;;;1.77;;
55082;SDS011;40978;52.850;6.506;2023-02-28T12:34:03;4.70;;;2.03;;
55082;SDS011;40978;52.850;6.506;2023-02-28T12:36:35;2.92;;;2.03;;
55082;SDS011;40978;52.850;6.506;2023-02-28T12:39:04;3.63;;;2.28;;
55082;SDS011;40978;52.850;6.506;2023-02-28T12:44:18;3.08;;;1.80;;
55082;SDS011;40978;52.850;6.506;2023-02-28T12:46:52;3.45;;;2.08;;
55082;SDS011;40978;52.850;6.506;2023-02-28T12:49:24;3.33;;;1.70;;
55082;SDS011;40978;52.850;6.506;2023-02-28T12:52:04;4.32;;;2.00;;
55082;SDS011;40978;52.850;6.506;2023-02-28T12:54:39;2.83;;;1.90;;
55082;SDS011;40978;52.850;6.506;2023-02-28T12:59:56;3.40;;;2.58;;
55082;SDS011;40978;52.850;6.506;2023-02-28T13:05:07;2.70;;;1.95;;
55082;SDS011;40978;52.850;6.506;2023-02-28T13:10:40;6.15;;;2.97;;
55082;SDS011;40978;52.850;6.506;2023-02-28T13:13:15;4.53;;;2.20;;
55082;SDS011;40978;52.850;6.506;2023-02-28T13:18:38;3.35;;;1.85;;
55082;SDS011;40978;52.850;6.506;2023-02-28T13:21:24;4.85;;;2.67;;
55082;SDS011;40978;52.850;6.506;2023-02-28T13:29:04;2.80;;;1.60;;
55082;SDS011;40978;52.850;6.506;2023-02-28T13:32:35;4.60;;;1.80;;
55082;SDS011;40978;52.850;6.506;2023-02-28T13:42:48;4.63;;;1.75;;
55082;SDS011;40978;52.850;6.506;2023-02-28T13:45:25;2.80;;;1.70;;
55082;SDS011;40978;52.850;6.506;2023-02-28T13:47:53;3.97;;;1.98;;
55082;SDS011;40978;52.850;6.506;2023-02-28T13:50:40;4.10;;;1.70;;
55082;SDS011;40978;52.850;6.506;2023-02-28T13:59:03;4.45;;;2.20;;
55082;SDS011;40978;52.850;6.506;2023-02-28T14:01:50;3.42;;;2.28;;
55082;SDS011;40978;52.850;6.506;2023-02-28T14:04:49;3.00;;;1.70;;
55082;SDS011;40978;52.850;6.506;2023-02-28T14:07:31;3.15;;;1.60;;
55082;SDS011;40978;52.850;6.506;2023-02-28T14:10:05;3.75;;;1.40;;
55082;SDS011;40978;52.850;6.506;2023-02-28T14:21:20;4.57;;;2.38;;
55082;SDS011;40978;52.850;6.506;2023-02-28T14:24:09;3.08;;;1.90;;
55082;SDS011;40978;52.850;6.506;2023-02-28T14:35:10;4.18;;;2.60;;
55082;SDS011;40978;52.850;6.506;2023-02-28T14:37:44;3.95;;;2.67;;
55082;SDS011;40978;52.850;6.506;2023-02-28T14:40:16;4.45;;;2.47;;
55082;SDS011;40978;52.850;6.506;2023-02-28T14:43:04;4.78;;;2.83;;
55082;SDS011;40978;52.850;6.506;2023-02-28T14:45:43;4.00;;;2.53;;
55082;SDS011;40978;52.850;6.506;2023-02-28T14:48:14;4.43;;;2.40;;
55082;SDS011;40978;52.850;6.506;2023-02-28T14:50:42;4.63;;;2.60;;
55082;SDS011;40978;52.850;6.506;2023-02-28T14:53:17;3.55;;;2.80;;
55082;SDS011;40978;52.850;6.506;2023-02-28T14:55:46;4.60;;;2.72;;
55082;SDS011;40978;52.850;6.506;2023-02-28T14:58:32;5.03;;;2.42;;
55082;SDS011;40978;52.850;6.506;2023-02-28T15:01:00;5.45;;;2.88;;
55082;SDS011;40978;52.850;6.506;2023-02-28T15:06:00;4.18;;;2.70;;
55082;SDS011;40978;52.850;6.506;2023-02-28T15:08:28;5.55;;;2.90;;
55082;SDS011;40978;52.850;6.506;2023-02-28T15:10:58;4.18;;;2.63;;
55082;SDS011;40978;52.850;6.506;2023-02-28T15:13:40;4.97;;;2.58;;
55082;SDS011;40978;52.850;6.506;2023-02-28T15:16:10;3.85;;;2.75;;
55082;SDS011;40978;52.850;6.506;2023-02-28T15:18:44;5.57;;;2.60;;
55082;SDS011;40978;52.850;6.506;2023-02-28T15:21:16;3.72;;;2.97;;
55082;SDS011;40978;52.850;6.506;2023-02-28T15:23:50;4.72;;;2.53;;
55082;SDS011;40978;52.850;6.506;2023-02-28T15:26:23;4.05;;;2.30;;
55082;SDS011;40978;52.850;6.506;2023-02-28T15:29:03;5.05;;;2.83;;
55082;SDS011;40978;52.850;6.506;2023-02-28T15:31:33;4.00;;;2.85;;
55082;SDS011;40978;52.850;6.506;2023-02-28T15:34:06;3.95;;;2.95;;
55082;SDS011;40978;52.850;6.506;2023-02-28T15:36:38;3.90;;;3.10;;
55082;SDS011;40978;52.850;6.506;2023-02-28T15:39:21;4.50;;;2.53;;
55082;SDS011;40978;52.850;6.506;2023-02-28T15:41:49;4.97;;;2.58;;
55082;SDS011;40978;52.850;6.506;2023-02-28T15:44:16;5.82;;;3.13;;
55082;SDS011;40978;52.850;6.506;2023-02-28T15:47:04;4.50;;;2.83;;
55082;SDS011;40978;52.850;6.506;2023-02-28T15:49:55;3.75;;;2.55;;
55082;SDS011;40978;52.850;6.506;2023-02-28T15:52:26;4.47;;;3.13;;
55082;SDS011;40978;52.850;6.506;2023-02-28T15:54:56;6.60;;;3.58;;
55082;SDS011;40978;52.850;6.506;2023-02-28T15:57:27;4.93;;;3.35;;
55082;SDS011;40978;52.850;6.506;2023-02-28T16:00:01;5.60;;;3.60;;
55082;SDS011;40978;52.850;6.506;2023-02-28T16:02:37;6.28;;;3.95;;
55082;SDS011;40978;52.850;6.506;2023-02-28T16:07:36;5.85;;;3.00;;
55082;SDS011;40978;52.850;6.506;2023-02-28T16:10:04;5.45;;;3.00;;
55082;SDS011;40978;52.850;6.506;2023-02-28T16:12:32;5.93;;;3.78;;
55082;SDS011;40978;52.850;6.506;2023-02-28T16:15:00;4.15;;;2.92;;
55082;SDS011;40978;52.850;6.506;2023-02-28T16:17:31;6.00;;;3.40;;
55082;SDS011;40978;52.850;6.506;2023-02-28T16:20:00;7.15;;;3.00;;
55082;SDS011;40978;52.850;6.506;2023-02-28T16:22:30;5.97;;;3.30;;
55082;SDS011;40978;52.850;6.506;2023-02-28T16:24:56;5.05;;;3.60;;
55082;SDS011;40978;52.850;6.506;2023-02-28T16:27:30;4.93;;;3.40;;
55082;SDS011;40978;52.850;6.506;2023-02-28T16:29:57;5.82;;;3.65;;
55082;SDS011;40978;52.850;6.506;2023-02-28T16:32:23;5.97;;;3.50;;
55082;SDS011;40978;52.850;6.506;2023-02-28T16:34:49;6.18;;;3.65;;
55082;SDS011;40978;52.850;6.506;2023-02-28T16:37:16;5.30;;;3.72;;
55082;SDS011;40978;52.850;6.506;2023-02-28T16:39:43;6.20;;;3.67;;
55082;SDS011;40978;52.850;6.506;2023-02-28T16:42:11;6.13;;;3.70;;
55082;SDS011;40978;52.850;6.506;2023-02-28T16:44:43;5.15;;;3.80;;
55082;SDS011;40978;52.850;6.506;2023-02-28T16:47:09;5.57;;;3.35;;
55082;SDS011;40978;52.850;6.506;2023-02-28T16:49:36;4.68;;;3.25;;
55082;SDS011;40978;52.850;6.506;2023-02-28T16:52:01;8.77;;;5.70;;
55082;SDS011;40978;52.850;6.506;2023-02-28T16:54:27;8.32;;;4.70;;
55082;SDS011;40978;52.850;6.506;2023-02-28T16:56:53;6.70;;;3.97;;
55082;SDS011;40978;52.850;6.506;2023-02-28T16:59:22;6.30;;;3.90;;
55082;SDS011;40978;52.850;6.506;2023-02-28T17:01:50;6.82;;;3.85;;
55082;SDS011;40978;52.850;6.506;2023-02-28T17:04:17;7.50;;;4.20;;
55082;SDS011;40978;52.850;6.506;2023-02-28T17:06:43;7.85;;;5.55;;
55082;SDS011;40978;52.850;6.506;2023-02-28T17:09:14;8.93;;;6.50;;
55082;SDS011;40978;52.850;6.506;2023-02-28T17:11:42;8.90;;;5.90;;
55082;SDS011;40978;52.850;6.506;2023-02-28T17:14:08;5.93;;;4.18;;
55082;SDS011;40978;52.850;6.506;2023-02-28T17:16:34;8.15;;;4.85;;
55082;SDS011;40978;52.850;6.506;2023-02-28T17:19:05;6.18;;;5.38;;
55082;SDS011;40978;52.850;6.506;2023-02-28T17:21:32;7.68;;;5.30;;
55082;SDS011;40978;52.850;6.506;2023-02-28T17:23:58;8.07;;;5.10;;